createdAt,value
2022-10-13T00:00:57.697Z,83.22
2022-10-13T00:05:00.596Z,83.46
2022-10-13T00:09:02.023Z,83.58
2022-10-13T00:13:03.939Z,83.52
2022-10-13T00:17:06.731Z,83.74
2022-10-13T00:21:11.675Z,84.13
2022-10-13T00:25:13.206Z,84.08
2022-10-13T00:29:16.445Z,83.73
2022-10-13T00:33:18.036Z,83.80
2022-10-13T00:37:20.879Z,83.66
2022-10-13T00:41:22.480Z,83.57
2022-10-13T00:45:25.738Z,83.57
2022-10-13T00:49:27.373Z,83.99
2022-10-13T00:53:36.277Z,84.57
2022-10-13T00:57:39.891Z,84.76
2022-10-13T01:01:41.457Z,84.35
2022-10-13T01:05:43.432Z,83.75
2022-10-13T01:09:46.455Z,83.15
2022-10-13T01:13:56.363Z,83.31
2022-10-13T01:18:06.315Z,82.80
2022-10-13T01:22:19.922Z,83.32
2022-10-13T01:27:00.273Z,83.64
2022-10-13T01:31:07.976Z,83.49
2022-10-13T01:35:12.927Z,83.48
2022-10-13T01:39:23.910Z,84.43
2022-10-13T01:43:30.455Z,84.38
2022-10-13T01:47:36.507Z,84.50
2022-10-13T01:51:39.603Z,85.03
2022-10-13T01:55:49.722Z,84.81
2022-10-13T01:59:51.386Z,84.74
2022-10-13T02:04:12.599Z,84.57
2022-10-13T02:08:24.415Z,84.74
2022-10-13T02:12:30.080Z,84.50
2022-10-13T02:16:36.187Z,84.83
2022-10-13T02:20:41.300Z,84.41
2022-10-13T02:24:42.968Z,84.23
2022-10-13T02:28:44.901Z,84.43
2022-10-13T02:32:46.367Z,84.48
2022-10-13T02:36:49.355Z,84.75
2022-10-13T02:40:51.104Z,84.97
2022-10-13T02:44:52.677Z,84.37
2022-10-13T02:48:54.307Z,84.58
2022-10-13T02:52:57.198Z,84.82
2022-10-13T02:56:58.695Z,84.90
2022-10-13T03:01:05.854Z,84.83
2022-10-13T03:05:08.531Z,84.92
2022-10-13T03:09:11.487Z,85.05
2022-10-13T03:13:12.933Z,84.66
2022-10-13T03:17:14.471Z,84.96
2022-10-13T03:21:16.059Z,84.62
2022-10-13T03:25:19.079Z,84.39
2022-10-13T03:29:23.723Z,84.36
2022-10-13T03:33:25.143Z,84.74
2022-10-13T03:37:28.900Z,84.51
2022-10-13T03:41:31.672Z,84.56
2022-10-13T03:45:33.139Z,84.84
2022-10-13T03:49:34.720Z,84.46
2022-10-13T03:53:36.615Z,84.50
2022-10-13T03:57:39.492Z,84.38
2022-10-13T04:01:41.136Z,84.76
2022-10-13T04:05:43.200Z,84.87
2022-10-13T04:09:44.847Z,84.92
2022-10-13T04:13:48.000Z,85.19
2022-10-13T04:17:49.718Z,85.37
2022-10-13T04:21:51.282Z,84.83
2022-10-13T04:25:53.148Z,84.34
2022-10-13T04:29:56.257Z,84.42
2022-10-13T04:33:58.020Z,84.20
2022-10-13T04:37:59.801Z,83.85
2022-10-13T04:42:01.423Z,82.67
2022-10-13T04:46:06.856Z,82.49
2022-10-13T04:50:09.409Z,82.72
2022-10-13T04:54:11.058Z,83.55
2022-10-13T04:58:12.617Z,82.65
2022-10-13T05:02:15.630Z,82.19
2022-10-13T05:06:18.997Z,83.43
2022-10-13T05:10:20.481Z,83.03
2022-10-13T05:14:22.269Z,83.63
2022-10-13T05:18:25.331Z,83.87
2022-10-13T05:22:27.957Z,82.03
2022-10-13T05:26:29.717Z,80.91
2022-10-13T05:30:31.804Z,82.43
2022-10-13T05:34:34.757Z,82.94
2022-10-13T05:38:36.467Z,83.54
2022-10-13T05:42:39.304Z,82.94
2022-10-13T05:46:40.849Z,82.20
2022-10-13T05:50:43.778Z,82.25
2022-10-13T05:54:50.293Z,81.66
2022-10-13T05:58:57.707Z,82.91
2022-10-13T06:03:04.699Z,83.43
2022-10-13T06:07:09.035Z,84.17
2022-10-13T06:11:10.699Z,83.42
2022-10-13T06:15:12.161Z,83.83
2022-10-13T06:19:13.831Z,81.87
2022-10-13T06:23:16.789Z,82.26
2022-10-13T06:27:18.380Z,82.59
2022-10-13T06:31:20.164Z,81.77
2022-10-13T06:35:21.766Z,80.36
2022-10-13T06:39:24.720Z,80.72
2022-10-13T06:43:34.401Z,80.61
2022-10-13T06:47:40.749Z,81.14
2022-10-13T06:51:42.316Z,80.77
2022-10-13T06:55:49.036Z,79.48
2022-10-13T06:59:53.121Z,78.92
2022-10-13T07:03:54.702Z,78.91
2022-10-13T07:07:56.357Z,77.88
2022-10-13T07:11:59.560Z,77.06
2022-10-13T07:16:02.782Z,76.55
2022-10-13T07:20:07.462Z,74.62
2022-10-13T07:24:11.219Z,72.80
2022-10-13T07:28:14.239Z,70.01
2022-10-13T07:32:15.732Z,69.41
2022-10-13T07:36:17.957Z,67.82
2022-10-13T07:40:19.633Z,69.35
2022-10-13T07:44:22.725Z,67.58
2022-10-13T07:48:24.352Z,67.28
2022-10-13T07:52:25.757Z,67.65
2022-10-13T07:56:27.419Z,67.55
2022-10-13T08:00:30.319Z,68.49
2022-10-13T08:04:32.904Z,69.35
2022-10-13T08:08:34.965Z,69.01
2022-10-13T08:12:36.647Z,68.12
2022-10-13T08:16:39.644Z,68.30
2022-10-13T08:20:43.674Z,68.21
2022-10-13T08:24:45.644Z,67.28
2022-10-13T08:29:02.809Z,67.36
2022-10-13T08:33:10.005Z,67.34
2022-10-13T08:37:13.845Z,67.16
2022-10-13T08:41:17.867Z,67.25
2022-10-13T08:45:52.151Z,66.56
2022-10-13T08:49:47.067Z,67.06
2022-10-13T08:53:49.221Z,67.64
2022-10-13T08:57:51.117Z,67.42
2022-10-13T09:01:54.053Z,66.39
2022-10-13T09:06:13.279Z,65.23
2022-10-13T09:10:18.049Z,64.18
2022-10-13T09:14:22.409Z,63.23
2022-10-13T09:18:28.502Z,63.26
2022-10-13T09:22:33.145Z,62.70
2022-10-13T09:26:38.293Z,62.35
2022-10-13T09:30:41.748Z,61.89
2022-10-13T09:34:43.923Z,61.81
2022-10-13T09:39:05.743Z,61.63
2022-10-13T09:43:28.686Z,61.58
2022-10-13T09:47:31.513Z,61.19
2022-10-13T09:51:37.459Z,59.83
2022-10-13T09:55:40.276Z,57.81
2022-10-13T09:59:47.050Z,56.99
2022-10-13T10:03:50.608Z,55.39
2022-10-13T10:07:52.525Z,55.39
2022-10-13T10:11:58.898Z,54.52
2022-10-13T10:16:07.636Z,54.71
2022-10-13T10:20:42.139Z,53.96
2022-10-13T10:24:51.649Z,52.67
2022-10-13T10:29:17.555Z,50.43
2022-10-13T10:33:22.151Z,50.89
2022-10-13T10:37:38.079Z,50.69
2022-10-13T10:41:49.187Z,50.99
2022-10-13T10:45:56.494Z,51.71
2022-10-13T10:50:03.165Z,51.38
2022-10-13T10:54:21.556Z,51.02
2022-10-13T10:58:33.212Z,51.79
2022-10-13T11:02:47.093Z,50.75
2022-10-13T11:06:48.864Z,51.56
2022-10-13T11:11:36.422Z,52.58
2022-10-13T11:15:44.713Z,52.70
2022-10-13T11:19:48.704Z,54.45
2022-10-13T11:23:50.313Z,55.68
2022-10-13T11:27:52.079Z,56.78
2022-10-13T11:31:54.659Z,62.28
2022-10-13T11:35:57.657Z,61.39
2022-10-13T11:40:20.008Z,64.00
2022-10-13T11:44:31.219Z,60.99
2022-10-13T11:49:01.657Z,61.69
2022-10-13T11:53:24.405Z,62.35
2022-10-13T11:57:27.298Z,60.60
2022-10-13T12:01:29.065Z,63.66
2022-10-13T12:05:30.633Z,60.21
2022-10-13T12:09:38.859Z,61.48
2022-10-13T12:13:46.802Z,64.99
2022-10-13T12:17:48.269Z,62.54
2022-10-13T12:21:50.916Z,62.04
2022-10-13T12:25:54.431Z,63.23
2022-10-13T12:29:56.130Z,62.70
2022-10-13T12:33:59.502Z,62.83
2022-10-13T12:38:03.956Z,64.51
2022-10-13T12:42:08.052Z,65.25
2022-10-13T15:06:23.880Z,73.25
2022-10-13T15:10:25.576Z,73.21
2022-10-13T15:14:26.988Z,73.25
2022-10-13T15:18:29.452Z,72.46
2022-10-13T15:22:32.586Z,73.24
2022-10-13T15:26:34.051Z,72.50
2022-10-13T15:30:35.715Z,72.60
2022-10-13T15:34:38.691Z,73.89
2022-10-13T15:38:42.041Z,73.91
2022-10-13T15:42:43.611Z,74.15
2022-10-13T15:47:05.507Z,74.22
2022-10-13T15:51:13.359Z,74.52
2022-10-13T15:55:16.304Z,73.97
2022-10-13T15:59:19.443Z,73.52
2022-10-13T16:03:20.869Z,73.93
2022-10-13T16:07:22.664Z,77.04
2022-10-13T16:11:25.919Z,77.28
2022-10-13T16:15:27.347Z,81.49
2022-10-13T16:19:28.823Z,82.89
2022-10-13T16:23:30.222Z,82.26
2022-10-13T16:27:33.423Z,82.25
2022-10-13T16:31:34.880Z,84.50
2022-10-13T16:35:36.491Z,85.55
2022-10-13T16:39:42.636Z,86.06
2022-10-13T16:43:47.496Z,86.58
2022-10-13T16:47:50.522Z,86.35
2022-10-13T16:51:51.991Z,86.63
2022-10-13T16:55:53.541Z,87.20
2022-10-13T16:59:56.527Z,87.07
2022-10-13T17:03:58.762Z,87.18
2022-10-13T17:08:00.390Z,87.31
2022-10-13T17:12:02.198Z,87.71
2022-10-13T17:16:05.520Z,88.06
2022-10-13T17:20:07.761Z,87.92
2022-10-13T17:24:09.234Z,87.56
2022-10-13T17:28:11.674Z,87.50
2022-10-13T17:32:15.743Z,86.26
2022-10-13T17:36:19.675Z,85.45
2022-10-13T17:40:21.247Z,86.04
2022-10-13T17:44:22.690Z,85.87
2022-10-13T17:48:25.598Z,86.96
2022-10-13T17:52:27.248Z,86.57
2022-10-13T17:56:29.208Z,86.74
2022-10-13T18:00:34.090Z,87.02
2022-10-13T18:04:46.855Z,87.13
2022-10-13T18:08:48.492Z,87.11
2022-10-13T18:12:49.930Z,87.55
2022-10-13T18:16:52.252Z,87.98
2022-10-13T18:20:55.162Z,86.27
2022-10-13T18:24:57.301Z,86.95
2022-10-13T18:28:58.945Z,87.48
2022-10-13T18:33:00.597Z,87.83
2022-10-13T18:37:03.565Z,87.53
2022-10-13T18:41:05.463Z,88.09
2022-10-13T18:45:08.131Z,88.29
2022-10-13T18:49:12.220Z,87.97
2022-10-13T18:53:15.225Z,87.74
2022-10-13T18:57:16.805Z,88.41
2022-10-13T19:01:20.039Z,88.46
2022-10-13T19:05:21.794Z,87.37
2022-10-13T19:09:24.573Z,87.20
2022-10-13T19:13:26.393Z,86.30
2022-10-13T19:17:28.220Z,84.99
2022-10-13T19:21:29.972Z,82.78
2022-10-13T19:25:32.985Z,82.60
2022-10-13T19:29:34.393Z,83.41
2022-10-13T19:33:39.678Z,83.39
2022-10-13T19:37:45.164Z,82.67
2022-10-13T19:41:49.507Z,83.66
2022-10-13T19:45:51.060Z,84.29
2022-10-13T19:49:52.541Z,83.43
2022-10-13T19:53:54.700Z,85.19
2022-10-13T19:57:57.843Z,85.99
2022-10-13T20:01:59.540Z,86.06
2022-10-13T20:06:04.011Z,86.90
2022-10-13T20:10:06.078Z,87.11
2022-10-13T20:14:08.931Z,86.98
2022-10-13T20:18:10.849Z,86.53
2022-10-13T20:22:12.507Z,85.81
2022-10-13T20:26:14.355Z,86.31
2022-10-13T20:30:17.532Z,86.18
2022-10-13T20:34:19.117Z,87.71
2022-10-13T20:38:20.540Z,88.28
2022-10-13T20:42:22.082Z,88.41
2022-10-13T20:46:25.298Z,88.28
2022-10-13T20:50:27.211Z,89.02
2022-10-13T20:54:28.782Z,88.89
2022-10-13T20:58:32.461Z,89.11
2022-10-13T21:02:35.639Z,88.74
2022-10-13T21:06:37.207Z,89.43
2022-10-13T21:10:38.692Z,89.21
2022-10-13T21:14:40.410Z,88.57
2022-10-13T21:18:45.531Z,88.67
2022-10-13T21:22:46.982Z,89.12
2022-10-13T21:26:48.406Z,89.17
2022-10-13T21:30:59.287Z,89.53
2022-10-13T21:35:02.280Z,89.30
2022-10-13T21:39:05.510Z,89.20
2022-10-13T21:43:06.895Z,89.23
2022-10-13T21:47:08.406Z,88.99
2022-10-13T21:51:16.832Z,89.60
2022-10-13T21:55:18.342Z,88.12
2022-10-13T21:59:19.950Z,88.21
2022-10-13T22:03:21.523Z,89.36
2022-10-13T22:07:24.622Z,89.64
2022-10-13T22:11:28.666Z,89.90
2022-10-13T22:15:33.358Z,89.60
2022-10-13T22:19:34.951Z,89.62
2022-10-13T22:23:37.806Z,89.73
2022-10-13T22:27:39.390Z,89.73
2022-10-13T22:31:41.418Z,89.87
2022-10-13T22:35:42.861Z,90.13
2022-10-13T22:39:45.847Z,90.05
2022-10-13T22:43:50.174Z,89.75
2022-10-13T22:47:51.707Z,89.09
2022-10-13T22:51:53.155Z,89.61
2022-10-13T22:56:28.290Z,90.25
2022-10-13T23:00:28.592Z,89.88
2022-10-13T23:04:30.313Z,89.81
2022-10-13T23:08:32.130Z,90.12
2022-10-13T23:12:35.007Z,88.13
2022-10-13T23:16:36.440Z,88.13
2022-10-13T23:20:39.187Z,88.05
2022-10-13T23:24:40.787Z,89.20
2022-10-13T23:28:43.913Z,87.65
2022-10-13T23:32:45.511Z,87.99
2022-10-13T23:36:46.998Z,87.52
2022-10-13T23:40:48.740Z,87.73
2022-10-13T23:44:51.543Z,86.73
2022-10-13T23:48:53.058Z,87.32
2022-10-13T23:52:55.762Z,88.15
2022-10-13T23:56:57.658Z,87.69
